createdAt,value
2022-10-19T00:00:51.810Z,10.86
2022-10-19T00:01:51.859Z,11.00
2022-10-19T00:02:51.761Z,10.98
2022-10-19T00:03:51.764Z,10.98
2022-10-19T00:04:51.712Z,10.98
2022-10-19T00:05:51.687Z,10.89
2022-10-19T00:06:51.658Z,11.00
2022-10-19T00:07:51.636Z,10.90
2022-10-19T00:08:51.613Z,11.04
2022-10-19T00:09:51.587Z,10.83
2022-10-19T00:10:51.560Z,10.89
2022-10-19T00:11:51.559Z,10.86
2022-10-19T00:12:51.513Z,10.86
2022-10-19T00:13:51.490Z,10.87
2022-10-19T00:14:51.462Z,10.90
2022-10-19T00:15:51.440Z,10.89
2022-10-19T00:16:51.410Z,10.77
2022-10-19T00:17:51.391Z,10.83
2022-10-19T00:18:51.362Z,10.92
2022-10-19T00:19:51.339Z,10.89
2022-10-19T00:20:51.311Z,10.98
2022-10-19T00:22:51.259Z,10.95
2022-10-19T00:23:51.242Z,10.89
2022-10-19T00:24:51.211Z,10.87
2022-10-19T00:25:51.190Z,10.86
2022-10-19T00:26:51.159Z,10.86
2022-10-19T00:27:51.157Z,10.82
2022-10-19T00:28:51.154Z,10.82
2022-10-19T00:29:51.088Z,10.82
2022-10-19T00:30:51.066Z,10.86
2022-10-19T00:31:51.046Z,10.71
2022-10-19T00:32:51.011Z,10.76
2022-10-19T00:33:50.988Z,10.72
2022-10-19T00:34:50.960Z,10.69
2022-10-19T00:35:50.937Z,10.75
2022-10-19T00:36:50.912Z,10.84
2022-10-19T00:37:50.888Z,10.72
2022-10-19T00:38:50.870Z,10.76
2022-10-19T00:40:50.811Z,10.89
2022-10-19T00:41:50.789Z,10.82
2022-10-19T00:42:50.760Z,10.89
2022-10-19T00:43:50.755Z,10.86
2022-10-19T00:44:50.710Z,10.92
2022-10-19T00:45:50.688Z,10.82
2022-10-19T00:46:50.659Z,10.80
2022-10-19T00:47:50.639Z,10.72
2022-10-19T00:48:50.614Z,10.72
2022-10-19T00:49:50.589Z,10.71
2022-10-19T00:50:50.559Z,10.77
2022-10-19T00:51:50.536Z,10.76
2022-10-19T00:52:50.510Z,10.77
2022-10-19T00:53:50.487Z,10.76
2022-10-19T00:54:50.460Z,10.69
2022-10-19T00:55:50.438Z,10.75
2022-10-19T00:56:50.410Z,10.69
2022-10-19T00:58:50.360Z,10.94
2022-10-19T00:59:50.354Z,10.90
2022-10-19T01:00:50.360Z,10.87
2022-10-19T01:01:50.288Z,10.86
2022-10-19T01:02:50.313Z,10.86
2022-10-19T01:03:50.240Z,10.77
2022-10-19T01:04:50.210Z,10.75
2022-10-19T01:05:50.185Z,10.76
2022-10-19T01:07:50.136Z,10.90
2022-10-19T01:08:50.114Z,11.00
2022-10-19T01:09:50.085Z,10.98
2022-10-19T01:10:50.058Z,10.92
2022-10-19T01:11:50.049Z,11.00
2022-10-19T01:12:50.009Z,11.07
2022-10-19T01:13:49.986Z,11.12
2022-10-19T01:14:49.956Z,11.05
2022-10-19T01:15:50.052Z,11.08
2022-10-19T01:16:49.908Z,11.01
2022-10-19T01:17:49.899Z,11.02
2022-10-19T01:18:49.859Z,10.90
2022-10-19T01:19:49.837Z,10.87
2022-10-19T01:20:49.808Z,10.76
2022-10-19T01:21:49.785Z,10.75
2022-10-19T01:22:49.762Z,10.82
2022-10-19T01:23:49.734Z,10.77
2022-10-19T01:24:49.754Z,10.67
2022-10-19T01:25:49.686Z,10.57
2022-10-19T01:26:49.658Z,10.61
2022-10-19T01:27:49.637Z,10.62
2022-10-19T01:28:49.647Z,10.53
2022-10-19T01:29:49.588Z,10.61
2022-10-19T01:30:49.558Z,10.57
2022-10-19T01:31:49.555Z,10.51
2022-10-19T01:32:49.509Z,10.58
2022-10-19T01:33:49.538Z,10.62
2022-10-19T01:34:49.458Z,10.59
2022-10-19T01:35:49.433Z,10.62
2022-10-19T01:36:49.408Z,10.57
2022-10-19T01:37:49.396Z,10.51
2022-10-19T01:38:49.357Z,10.53
2022-10-19T01:39:49.991Z,10.51
2022-10-19T01:40:49.308Z,10.48
2022-10-19T01:41:49.283Z,10.48
2022-10-19T01:42:49.288Z,10.48
2022-10-19T01:43:49.235Z,10.49
2022-10-19T01:44:49.204Z,10.41
2022-10-19T01:45:49.184Z,10.34
2022-10-19T01:46:49.155Z,10.31
2022-10-19T01:47:49.153Z,10.12
2022-10-19T01:48:49.103Z,10.21
2022-10-19T01:49:49.084Z,10.25
2022-10-19T01:52:16.560Z,10.15
2022-10-19T01:53:16.535Z,10.15
2022-10-19T01:54:16.509Z,10.12
2022-10-19T01:55:16.486Z,10.13
2022-10-19T01:56:16.455Z,10.06
2022-10-19T01:57:16.438Z,10.03
2022-10-19T01:58:16.405Z,10.05
2022-10-19T01:59:16.382Z,9.99
2022-10-19T02:00:16.354Z,10.06
2022-10-19T02:01:16.332Z,10.07
2022-10-19T02:02:16.303Z,9.97
2022-10-19T02:03:16.296Z,10.06
2022-10-19T02:04:16.254Z,9.94
2022-10-19T02:05:16.227Z,10.02
2022-10-19T02:06:16.199Z,9.97
2022-10-19T02:07:16.177Z,9.92
2022-10-19T02:08:16.151Z,9.94
2022-10-19T02:09:16.126Z,9.97
2022-10-19T02:10:16.102Z,10.24
2022-10-19T02:11:16.075Z,10.25
2022-10-19T02:12:16.045Z,10.38
2022-10-19T02:13:16.025Z,10.38
2022-10-19T02:14:15.995Z,10.42
2022-10-19T02:15:15.974Z,10.34
2022-10-19T02:16:15.945Z,10.33
2022-10-19T02:17:15.922Z,10.36
2022-10-19T02:18:15.892Z,10.34
2022-10-19T02:19:15.937Z,10.41
2022-10-19T02:20:15.843Z,10.39
2022-10-19T02:21:15.820Z,10.51
2022-10-19T02:22:15.796Z,10.46
2022-10-19T02:23:15.768Z,10.49
2022-10-19T02:24:15.741Z,10.53
2022-10-19T02:25:15.716Z,10.55
2022-10-19T02:26:15.694Z,10.51
2022-10-19T02:27:15.667Z,10.43
2022-10-19T02:28:15.678Z,10.36
2022-10-19T02:29:15.614Z,10.41
2022-10-19T02:30:15.588Z,10.23
2022-10-19T02:31:15.563Z,10.23
2022-10-19T02:32:15.536Z,10.06
2022-10-19T02:33:15.515Z,10.03
2022-10-19T02:34:15.488Z,10.12
2022-10-19T02:35:15.484Z,10.07
2022-10-19T02:36:15.436Z,10.06
2022-10-19T02:37:15.492Z,10.00
2022-10-19T02:38:15.387Z,9.91
2022-10-19T02:39:15.363Z,9.94
2022-10-19T02:40:15.336Z,9.87
2022-10-19T02:41:15.310Z,9.85
2022-10-19T02:42:15.285Z,9.90
2022-10-19T02:43:15.259Z,9.80
2022-10-19T02:44:15.230Z,9.87
2022-10-19T02:45:15.208Z,9.94
2022-10-19T02:46:15.182Z,10.05
2022-10-19T02:47:15.158Z,10.09
2022-10-19T02:48:15.130Z,10.23
2022-10-19T02:49:15.105Z,10.24
2022-10-19T02:50:15.083Z,10.28
2022-10-19T02:51:15.076Z,10.30
2022-10-19T02:52:15.030Z,10.30
2022-10-19T02:53:15.000Z,10.38
2022-10-19T02:54:14.976Z,10.34
2022-10-19T02:55:14.950Z,10.45
2022-10-19T02:56:14.928Z,10.43
2022-10-19T02:57:14.900Z,10.43
2022-10-19T02:58:14.872Z,10.34
2022-10-19T02:59:14.850Z,10.39
2022-10-19T03:00:14.820Z,10.36
2022-10-19T03:01:14.860Z,10.24
2022-10-19T03:02:14.775Z,10.23
2022-10-19T03:03:14.751Z,10.17
2022-10-19T03:04:14.719Z,10.23
2022-10-19T03:05:14.697Z,10.33
2022-10-19T03:06:14.668Z,10.39
2022-10-19T03:07:14.672Z,10.41
2022-10-19T03:08:14.617Z,10.24
2022-10-19T03:09:14.593Z,10.17
2022-10-19T03:10:14.566Z,10.13
2022-10-19T03:11:14.544Z,10.05
2022-10-19T03:12:14.513Z,10.02
2022-10-19T03:13:14.492Z,10.00
2022-10-19T03:14:14.470Z,10.17
2022-10-19T03:15:14.455Z,10.28
2022-10-19T03:16:14.413Z,10.27
2022-10-19T03:17:14.390Z,10.33
2022-10-19T03:18:14.365Z,10.27
2022-10-19T03:19:14.339Z,10.17
2022-10-19T03:20:14.312Z,10.24
2022-10-19T03:21:14.286Z,10.20
2022-10-19T03:22:14.265Z,10.17
2022-10-19T03:23:14.257Z,10.23
2022-10-19T03:24:14.211Z,10.23
2022-10-19T03:25:14.183Z,10.13
2022-10-19T03:26:14.157Z,10.02
2022-10-19T03:27:14.133Z,10.02
2022-10-19T03:28:14.106Z,9.94
2022-10-19T03:29:14.083Z,9.92
2022-10-19T03:30:14.055Z,9.81
2022-10-19T03:31:14.030Z,9.85
2022-10-19T03:32:14.005Z,9.81
2022-10-19T03:33:14.039Z,9.73
2022-10-19T03:34:13.958Z,9.72
2022-10-19T03:35:13.934Z,9.74
2022-10-19T03:36:13.899Z,9.73
2022-10-19T03:37:13.878Z,9.66
2022-10-19T03:38:13.849Z,9.54
2022-10-19T03:39:13.846Z,9.56
2022-10-19T03:40:13.798Z,9.58
2022-10-19T03:41:13.777Z,9.47
2022-10-19T03:42:13.751Z,9.47
2022-10-19T03:43:13.724Z,9.55
2022-10-19T03:44:13.695Z,9.45
2022-10-19T03:45:13.670Z,9.47
2022-10-19T03:46:13.644Z,9.48
2022-10-19T03:47:13.625Z,9.40
2022-10-19T03:48:13.599Z,9.40
2022-10-19T03:49:13.568Z,9.45
2022-10-19T03:50:13.543Z,9.39
2022-10-19T03:51:13.515Z,9.31
2022-10-19T03:52:13.486Z,9.36
2022-10-19T03:53:13.464Z,9.40
2022-10-19T03:54:13.437Z,9.33
2022-10-19T03:55:13.516Z,9.45
2022-10-19T03:56:13.438Z,9.47
2022-10-19T03:57:13.384Z,9.45
2022-10-19T03:58:13.398Z,9.40
2022-10-19T03:59:13.373Z,9.45
2022-10-19T04:00:13.322Z,9.52
2022-10-19T04:01:13.406Z,9.62
2022-10-19T04:02:13.269Z,9.63
2022-10-19T04:03:13.209Z,9.63
2022-10-19T04:04:13.178Z,9.59
2022-10-19T04:05:13.151Z,9.67
2022-10-19T04:06:15.756Z,9.76
2022-10-19T04:07:13.102Z,9.72
2022-10-19T04:08:13.072Z,9.74
2022-10-19T04:09:13.048Z,9.81
2022-10-19T04:10:13.020Z,9.80
2022-10-19T04:11:13.015Z,9.72
2022-10-19T04:12:12.968Z,9.76
2022-10-19T04:13:12.946Z,9.80
2022-10-19T04:14:19.030Z,9.76
2022-10-19T04:15:12.893Z,9.84
2022-10-19T04:16:12.867Z,9.67
2022-10-19T04:17:12.839Z,9.64
2022-10-19T04:18:12.813Z,9.59
2022-10-19T04:19:12.790Z,9.59
2022-10-19T04:20:12.769Z,9.69
2022-10-19T04:21:12.739Z,9.80
2022-10-19T04:22:12.712Z,9.73
2022-10-19T04:23:12.744Z,9.87
2022-10-19T04:24:12.659Z,9.76
2022-10-19T04:25:12.635Z,9.72
2022-10-19T04:26:12.608Z,9.62
2022-10-19T04:27:12.603Z,9.73
2022-10-19T04:28:12.557Z,9.63
2022-10-19T04:29:12.613Z,9.69
2022-10-19T04:30:12.508Z,9.66
2022-10-19T04:31:12.482Z,9.62
2022-10-19T04:32:12.455Z,9.59
2022-10-19T04:33:12.428Z,9.70
2022-10-19T04:34:12.411Z,9.69
2022-10-19T04:35:12.380Z,9.58
2022-10-19T04:36:12.351Z,9.58
2022-10-19T04:37:12.325Z,9.66
2022-10-19T04:38:12.298Z,9.59
2022-10-19T04:39:12.274Z,9.63
2022-10-19T04:40:14.979Z,9.59
2022-10-19T04:41:12.222Z,9.59
2022-10-19T04:42:12.195Z,9.58
2022-10-19T04:43:12.187Z,9.64
2022-10-19T04:44:12.221Z,9.69
2022-10-19T04:45:12.119Z,9.69
2022-10-19T04:46:12.095Z,9.69
2022-10-19T04:47:12.067Z,9.72
2022-10-19T04:48:15.042Z,9.74
2022-10-19T04:49:15.123Z,9.80
2022-10-19T04:50:11.987Z,9.73
2022-10-19T04:51:11.967Z,9.70
2022-10-19T04:52:11.934Z,9.84
2022-10-19T04:53:11.968Z,9.74
2022-10-19T04:54:11.886Z,9.76
2022-10-19T04:55:11.861Z,9.62
2022-10-19T04:56:11.830Z,9.58
2022-10-19T04:57:11.811Z,9.69
2022-10-19T04:58:11.780Z,9.55
2022-10-19T04:59:11.774Z,9.62
2022-10-19T05:00:11.728Z,9.56
2022-10-19T05:01:11.741Z,9.49
2022-10-19T05:02:11.676Z,9.45
2022-10-19T05:03:11.653Z,9.49
2022-10-19T05:04:11.623Z,9.51
2022-10-19T05:05:11.598Z,9.51
2022-10-19T05:06:11.575Z,9.56
2022-10-19T05:07:11.549Z,9.55
2022-10-19T05:08:11.522Z,9.44
2022-10-19T05:09:11.499Z,9.54
2022-10-19T05:10:11.468Z,9.47
2022-10-19T05:11:11.442Z,9.39
2022-10-19T05:12:11.418Z,9.33
2022-10-19T05:13:11.394Z,9.44
2022-10-19T05:14:11.366Z,9.37
2022-10-19T05:15:11.359Z,9.47
2022-10-19T05:16:11.312Z,9.44
2022-10-19T05:17:11.287Z,9.47
2022-10-19T05:18:11.261Z,9.49
2022-10-19T05:19:11.237Z,9.49
2022-10-19T05:20:11.209Z,9.47
2022-10-19T05:21:11.186Z,9.42
2022-10-19T05:22:11.158Z,9.39
2022-10-19T05:23:11.131Z,9.39
2022-10-19T05:24:11.109Z,9.45
2022-10-19T05:25:11.081Z,9.52
2022-10-19T05:26:11.052Z,9.48
2022-10-19T05:27:11.028Z,9.49
2022-10-19T05:28:11.000Z,9.48
2022-10-19T05:29:11.039Z,9.37
2022-10-19T05:30:10.950Z,9.31
2022-10-19T05:31:10.948Z,9.24
2022-10-19T05:32:10.898Z,9.21
2022-10-19T05:33:10.872Z,9.26
2022-10-19T05:34:10.941Z,9.18
2022-10-19T05:35:10.821Z,9.30
2022-10-19T05:36:10.792Z,9.26
2022-10-19T05:37:10.767Z,9.22
2022-10-19T05:38:10.742Z,9.15
2022-10-19T05:39:10.719Z,9.19
2022-10-19T05:40:10.689Z,9.22
2022-10-19T05:41:10.660Z,9.22
2022-10-19T05:42:10.635Z,9.26
2022-10-19T05:43:10.614Z,9.29
2022-10-19T05:44:10.582Z,9.27
2022-10-19T05:45:10.572Z,9.24
2022-10-19T05:46:10.533Z,9.22
2022-10-19T05:47:10.533Z,9.19
2022-10-19T05:48:10.480Z,9.24
2022-10-19T05:49:10.450Z,9.30
2022-10-19T05:50:10.467Z,9.40
2022-10-19T05:51:10.401Z,9.39
2022-10-19T05:52:10.416Z,9.36
2022-10-19T05:53:10.350Z,9.31
2022-10-19T05:54:10.318Z,9.37
2022-10-19T05:55:10.297Z,9.42
2022-10-19T05:56:10.267Z,9.56
2022-10-19T05:57:10.246Z,9.56
2022-10-19T05:58:10.217Z,9.58
2022-10-19T05:59:10.262Z,9.48
2022-10-19T06:00:10.163Z,9.47
2022-10-19T06:01:10.138Z,9.48
2022-10-19T06:02:10.154Z,9.51
2022-10-19T06:03:10.104Z,9.54
2022-10-19T06:04:10.076Z,9.63
2022-10-19T06:05:10.035Z,9.58
2022-10-19T06:06:10.008Z,9.62
2022-10-19T06:07:09.981Z,9.76
2022-10-19T06:08:09.957Z,9.66
2022-10-19T06:09:09.928Z,9.73
2022-10-19T06:10:09.910Z,9.73
2022-10-19T06:11:09.876Z,9.77
2022-10-19T06:12:09.851Z,9.84
2022-10-19T06:13:09.824Z,9.80
2022-10-19T06:14:09.799Z,9.81
2022-10-19T06:15:09.772Z,9.70
2022-10-19T06:16:09.750Z,9.70
2022-10-19T06:17:09.722Z,9.64
2022-10-19T06:18:09.697Z,9.72
2022-10-19T06:19:09.687Z,9.70
2022-10-19T06:20:09.643Z,9.72
2022-10-19T06:21:09.617Z,9.69
2022-10-19T06:22:09.594Z,9.72
2022-10-19T06:23:09.565Z,9.77
2022-10-19T06:24:09.539Z,9.81
2022-10-19T06:25:09.511Z,9.90
2022-10-19T06:26:09.486Z,9.82
2022-10-19T06:27:09.497Z,9.87
2022-10-19T06:28:09.487Z,9.81
2022-10-19T06:29:09.411Z,9.90
2022-10-19T06:30:09.385Z,9.92
2022-10-19T06:31:09.651Z,9.82
2022-10-19T06:32:09.331Z,9.85
2022-10-19T06:33:09.416Z,9.82
2022-10-19T06:34:09.322Z,9.91
2022-10-19T06:35:09.271Z,9.84
2022-10-19T06:36:09.229Z,9.85
2022-10-19T06:37:09.201Z,9.94
2022-10-19T06:38:09.176Z,9.80
2022-10-19T06:39:09.148Z,9.77
2022-10-19T06:40:09.152Z,9.84
2022-10-19T06:41:09.095Z,9.91
2022-10-19T06:42:09.074Z,9.99
2022-10-19T06:43:09.045Z,9.95
2022-10-19T06:44:09.022Z,9.77
2022-10-19T06:45:08.993Z,9.81
2022-10-19T06:46:08.968Z,9.90
2022-10-19T06:47:08.943Z,9.82
2022-10-19T06:48:08.928Z,9.81
2022-10-19T06:49:08.901Z,9.84
2022-10-19T06:50:08.864Z,9.94
2022-10-19T06:51:08.856Z,10.02
2022-10-19T06:52:08.812Z,10.02
2022-10-19T06:53:08.784Z,10.07
2022-10-19T06:54:08.760Z,10.05
2022-10-19T06:55:08.738Z,10.00
2022-10-19T06:56:08.710Z,10.06
2022-10-19T06:57:08.681Z,10.05
2022-10-19T06:58:08.659Z,10.05
2022-10-19T06:59:08.630Z,10.05
2022-10-19T07:00:08.609Z,10.09
2022-10-19T07:01:08.672Z,10.09
2022-10-19T07:02:08.557Z,10.09
2022-10-19T07:03:08.528Z,10.17
2022-10-19T07:04:08.499Z,10.23
2022-10-19T07:05:08.476Z,10.24
2022-10-19T07:06:08.452Z,10.23
2022-10-19T07:07:08.443Z,10.38
2022-10-19T07:08:08.466Z,10.39
2022-10-19T07:09:08.373Z,10.41
2022-10-19T07:10:08.403Z,10.41
2022-10-19T07:11:08.321Z,10.38
2022-10-19T07:12:08.320Z,10.33
2022-10-19T07:14:08.318Z,10.49
2022-10-19T07:15:08.218Z,10.55
2022-10-19T07:16:08.193Z,10.59
2022-10-19T07:17:08.171Z,10.64
2022-10-19T07:18:08.145Z,10.61
2022-10-19T07:19:08.167Z,10.59
2022-10-19T07:20:08.092Z,10.68
2022-10-19T07:21:08.063Z,10.71
2022-10-19T07:22:08.040Z,10.75
2022-10-19T07:23:08.036Z,10.76
2022-10-19T07:24:07.997Z,10.80
2022-10-19T07:25:07.967Z,10.72
2022-10-19T07:26:07.943Z,10.76
2022-10-19T07:27:07.915Z,10.77
2022-10-19T07:28:07.888Z,10.83
2022-10-19T07:29:07.863Z,10.80
2022-10-19T07:30:07.840Z,10.82
2022-10-19T07:31:07.815Z,10.84
2022-10-19T07:32:07.789Z,10.87
2022-10-19T07:33:07.894Z,10.89
2022-10-19T07:34:07.739Z,10.86
2022-10-19T07:35:07.712Z,10.98
2022-10-19T07:36:07.687Z,11.00
2022-10-19T07:37:07.662Z,10.90
2022-10-19T07:38:07.638Z,10.90
2022-10-19T07:39:07.631Z,10.87
2022-10-19T07:40:07.588Z,10.86
2022-10-19T07:41:07.566Z,10.90
2022-10-19T07:42:07.540Z,10.94
2022-10-19T07:43:07.510Z,10.87
2022-10-19T07:44:08.971Z,10.98
2022-10-19T07:45:07.459Z,11.02
2022-10-19T07:46:07.437Z,11.05
2022-10-19T07:47:07.410Z,11.04
2022-10-19T07:48:07.389Z,11.12
2022-10-19T07:49:07.361Z,11.07
2022-10-19T07:50:07.336Z,11.08
2022-10-19T07:51:07.310Z,11.05
2022-10-19T07:52:07.286Z,11.07
2022-10-19T07:53:07.259Z,11.00
2022-10-19T07:54:07.238Z,11.07
2022-10-19T07:55:07.230Z,11.04
2022-10-19T07:56:07.184Z,11.10
2022-10-19T07:57:07.161Z,11.05
2022-10-19T07:58:07.137Z,11.15
2022-10-19T07:59:07.109Z,11.08
2022-10-19T08:00:07.085Z,11.15
2022-10-19T08:01:07.060Z,11.15
2022-10-19T08:02:07.084Z,11.15
2022-10-19T08:04:55.619Z,11.16
2022-10-19T08:05:10.466Z,11.16
2022-10-19T08:06:06.939Z,11.22
2022-10-19T08:07:06.910Z,11.22
2022-10-19T08:08:06.888Z,11.26
2022-10-19T08:09:06.947Z,11.38
2022-10-19T08:10:06.836Z,11.40
2022-10-19T08:11:06.839Z,11.45
2022-10-19T08:12:06.790Z,11.48
2022-10-19T08:13:06.765Z,11.48
2022-10-19T08:14:06.740Z,11.55
2022-10-19T08:15:06.717Z,11.62
2022-10-19T08:16:06.692Z,11.70
2022-10-19T08:17:06.664Z,11.67
2022-10-19T08:18:06.641Z,11.63
2022-10-19T08:19:06.613Z,11.62
2022-10-19T08:20:06.596Z,11.59
2022-10-19T08:21:06.565Z,11.74
2022-10-19T08:22:06.547Z,11.80
2022-10-19T08:23:06.517Z,11.83
2022-10-19T08:24:06.491Z,11.77
2022-10-19T08:25:06.470Z,11.86
2022-10-19T08:26:06.445Z,11.83
2022-10-19T08:27:06.439Z,11.89
2022-10-19T08:28:06.396Z,11.83
2022-10-19T08:29:06.370Z,11.88
2022-10-19T08:30:06.345Z,11.93
2022-10-19T08:31:06.321Z,11.96
2022-10-19T08:32:06.300Z,11.97
2022-10-19T08:33:06.274Z,12.02
2022-10-19T08:34:06.248Z,12.07
2022-10-19T08:35:09.979Z,12.11
2022-10-19T08:36:06.200Z,12.17
2022-10-19T08:37:14.758Z,12.11
2022-10-19T08:38:06.152Z,12.21
2022-10-19T08:39:06.128Z,12.29
2022-10-19T08:40:06.101Z,12.28
2022-10-19T08:41:06.077Z,12.26
2022-10-19T08:42:06.053Z,12.33
2022-10-19T08:43:06.048Z,12.36
2022-10-19T08:44:09.191Z,12.33
2022-10-19T08:45:05.993Z,12.36
2022-10-19T08:46:05.964Z,12.36
2022-10-19T08:47:07.656Z,12.37
2022-10-19T08:48:05.911Z,12.44
2022-10-19T08:49:05.883Z,12.50
2022-10-19T08:50:05.862Z,12.45
2022-10-19T08:51:05.840Z,12.51
2022-10-19T08:52:05.816Z,12.51
2022-10-19T08:53:05.790Z,12.57
2022-10-19T08:54:05.769Z,12.57
2022-10-19T08:55:05.746Z,12.61
2022-10-19T08:56:05.719Z,12.55
2022-10-19T08:57:05.695Z,12.53
2022-10-19T08:58:05.670Z,12.57
2022-10-19T08:59:05.663Z,12.57
2022-10-19T09:00:05.623Z,12.58
2022-10-19T09:01:05.600Z,12.55
2022-10-19T09:02:05.585Z,12.58
2022-10-19T09:03:05.553Z,12.57
2022-10-19T09:04:05.528Z,12.62
2022-10-19T09:05:05.503Z,12.69
2022-10-19T09:06:05.481Z,12.63
2022-10-19T09:07:05.454Z,12.70
2022-10-19T09:08:05.431Z,12.72
2022-10-19T09:09:05.490Z,12.73
2022-10-19T09:10:05.390Z,12.80
2022-10-19T09:11:05.366Z,12.90
2022-10-19T09:12:05.338Z,12.83
2022-10-19T09:13:05.315Z,12.84
2022-10-19T09:14:06.106Z,12.95
2022-10-19T09:15:05.286Z,12.87
2022-10-19T09:16:05.241Z,12.93
2022-10-19T09:17:05.221Z,12.98
2022-10-19T09:18:05.194Z,12.99
2022-10-19T09:19:05.217Z,13.08
2022-10-19T09:20:05.146Z,13.08
2022-10-19T09:21:05.175Z,13.13
2022-10-19T09:22:05.107Z,13.23
2022-10-19T09:23:07.602Z,13.24
2022-10-19T09:24:05.053Z,13.40
2022-10-19T09:25:05.035Z,13.43
2022-10-19T09:26:05.007Z,13.47
2022-10-19T09:27:04.981Z,13.40
2022-10-19T09:28:04.961Z,13.46
2022-10-19T09:29:04.935Z,13.43
2022-10-19T09:30:04.916Z,13.55
2022-10-19T09:31:04.930Z,13.57
2022-10-19T09:32:04.867Z,13.67
2022-10-19T09:33:04.843Z,13.61
2022-10-19T09:34:04.817Z,13.60
2022-10-19T09:35:04.796Z,13.76
2022-10-19T09:36:04.770Z,13.68
2022-10-19T09:37:04.841Z,13.87
2022-10-19T09:38:04.728Z,13.86
2022-10-19T09:39:04.705Z,13.98
2022-10-19T09:40:04.676Z,14.31
2022-10-19T09:41:04.657Z,14.49
2022-10-19T09:42:04.633Z,14.70
2022-10-19T09:43:04.609Z,15.00
2022-10-19T09:44:04.584Z,15.26
2022-10-19T09:45:04.561Z,15.47
2022-10-19T09:46:11.613Z,15.63
2022-10-19T09:47:04.867Z,15.88
2022-10-19T09:48:08.785Z,16.03
2022-10-19T09:49:04.468Z,16.10
2022-10-19T09:50:04.447Z,16.34
2022-10-19T09:51:04.425Z,16.39
2022-10-19T09:52:04.402Z,16.58
2022-10-19T09:53:04.379Z,16.68
2022-10-19T09:54:04.359Z,16.74
2022-10-19T09:55:04.333Z,16.89
2022-10-19T09:56:04.316Z,17.10
2022-10-19T09:57:04.398Z,16.95
2022-10-19T09:58:04.268Z,17.13
2022-10-19T09:59:04.247Z,17.16
2022-10-19T10:00:04.228Z,17.28
2022-10-19T10:01:04.202Z,17.14
2022-10-19T10:02:04.191Z,17.23
2022-10-19T10:03:04.180Z,17.35
2022-10-19T10:04:04.137Z,17.42
2022-10-19T10:05:04.112Z,17.37
2022-10-19T10:06:04.095Z,17.31
2022-10-19T10:07:04.100Z,17.19
2022-10-19T10:08:04.051Z,17.14
2022-10-19T10:09:04.149Z,17.12
2022-10-19T10:10:04.008Z,16.99
2022-10-19T10:11:03.984Z,16.89
2022-10-19T10:12:03.972Z,16.89
2022-10-19T10:13:03.944Z,16.59
2022-10-19T10:14:06.171Z,16.26
2022-10-19T10:15:03.901Z,15.91
2022-10-19T10:16:03.879Z,15.78
2022-10-19T10:17:03.971Z,15.62
2022-10-19T10:18:03.838Z,15.47
2022-10-19T10:19:03.832Z,15.52
2022-10-19T10:20:03.796Z,15.54
2022-10-19T10:21:05.893Z,15.59
2022-10-19T10:22:03.780Z,15.66
2022-10-19T10:23:03.733Z,15.80
2022-10-19T10:24:03.708Z,16.06
2022-10-19T10:25:03.687Z,16.28
2022-10-19T10:26:03.663Z,16.49
2022-10-19T10:27:03.718Z,16.66
2022-10-19T10:28:03.620Z,16.77
2022-10-19T10:29:03.599Z,16.76
2022-10-19T10:30:03.579Z,16.72
2022-10-19T10:31:03.558Z,16.58
2022-10-19T10:32:03.542Z,16.49
2022-10-19T10:33:13.497Z,16.39
2022-10-19T10:34:12.255Z,16.31
2022-10-19T10:35:03.494Z,15.88
2022-10-19T10:36:03.448Z,15.96
2022-10-19T10:37:03.477Z,16.02
2022-10-19T10:38:03.409Z,16.25
2022-10-19T10:40:45.810Z,16.72
2022-10-19T10:41:45.787Z,16.76
2022-10-19T10:42:45.765Z,16.62
2022-10-19T10:43:45.788Z,16.51
2022-10-19T10:44:45.723Z,16.40
2022-10-19T10:45:45.704Z,16.32
2022-10-19T10:46:45.682Z,16.32
2022-10-19T10:47:45.660Z,16.37
2022-10-19T10:48:47.017Z,16.47
2022-10-19T10:49:45.620Z,16.41
2022-10-19T10:50:45.615Z,16.39
2022-10-19T10:51:49.234Z,16.36
2022-10-19T10:52:45.555Z,16.31
2022-10-19T10:53:45.537Z,16.31
2022-10-19T10:54:45.512Z,16.26
2022-10-19T10:55:45.494Z,16.28
2022-10-19T10:56:45.469Z,16.36
2022-10-19T10:57:45.452Z,16.36
2022-10-19T10:58:45.426Z,16.21
2022-10-19T10:59:45.773Z,16.13
2022-10-19T11:00:45.385Z,16.00
2022-10-19T11:01:45.466Z,16.02
2022-10-19T11:02:45.344Z,16.02
2022-10-19T11:03:45.324Z,15.92
2022-10-19T11:04:47.451Z,15.94
2022-10-19T11:05:45.280Z,15.70
2022-10-19T11:06:45.283Z,15.60
2022-10-19T11:07:45.239Z,15.41
2022-10-19T11:08:45.243Z,15.47
2022-10-19T11:09:45.196Z,15.45
2022-10-19T11:10:45.176Z,15.36
2022-10-19T11:11:45.155Z,15.39
2022-10-19T11:12:45.131Z,15.36
2022-10-19T11:13:45.114Z,15.36
2022-10-19T11:14:45.088Z,15.32
2022-10-19T11:15:45.072Z,15.22
2022-10-19T11:16:45.045Z,15.25
2022-10-19T11:17:45.026Z,15.23
2022-10-19T11:18:45.002Z,15.14
2022-10-19T11:19:44.983Z,15.22
2022-10-19T11:20:44.958Z,15.25
2022-10-19T11:21:44.937Z,15.29
2022-10-19T11:22:44.933Z,15.25
2022-10-19T11:23:44.895Z,15.26
2022-10-19T11:24:47.843Z,15.30
2022-10-19T11:25:44.855Z,15.30
2022-10-19T11:26:44.832Z,15.27
2022-10-19T11:27:44.814Z,15.23
2022-10-19T11:28:44.786Z,15.17
2022-10-19T11:29:44.765Z,15.17
2022-10-19T11:30:50.496Z,15.17
2022-10-19T11:31:44.724Z,15.18
2022-10-19T11:32:46.071Z,15.17
2022-10-19T11:33:44.680Z,15.18
2022-10-19T11:34:44.656Z,15.22
2022-10-19T11:35:44.633Z,15.19
2022-10-19T11:36:44.614Z,15.17
2022-10-19T11:37:49.940Z,15.15
2022-10-19T11:38:44.585Z,15.05
2022-10-19T11:39:44.547Z,15.02
2022-10-19T11:40:54.163Z,15.04
2022-10-19T11:41:44.501Z,15.02
2022-10-19T11:42:44.577Z,15.02
2022-10-19T11:43:44.461Z,15.11
2022-10-19T11:44:44.435Z,15.05
2022-10-19T11:45:44.413Z,15.14
2022-10-19T11:46:44.391Z,15.10
2022-10-19T11:47:44.373Z,15.11
2022-10-19T11:48:44.344Z,15.14
2022-10-19T11:49:44.335Z,15.12
2022-10-19T11:50:49.726Z,15.18
2022-10-19T11:51:44.284Z,15.23
2022-10-19T11:52:44.262Z,15.12
2022-10-19T11:53:44.237Z,15.00
2022-10-19T11:54:44.231Z,14.99
2022-10-19T11:55:44.193Z,15.11
2022-10-19T11:57:02.242Z,15.17
2022-10-19T11:57:44.149Z,15.10
2022-10-19T11:58:44.249Z,15.08
2022-10-19T11:59:44.105Z,15.14
2022-10-19T12:00:44.082Z,15.19
2022-10-19T12:01:44.172Z,15.26
2022-10-19T12:02:44.039Z,15.23
2022-10-19T12:03:44.018Z,15.30
2022-10-19T12:04:43.991Z,15.30
2022-10-19T12:05:43.974Z,15.25
2022-10-19T12:06:43.950Z,15.29
2022-10-19T12:07:43.928Z,15.27
2022-10-19T12:08:43.971Z,15.26
2022-10-19T12:09:43.886Z,15.19
2022-10-19T12:10:43.880Z,15.15
2022-10-19T12:11:43.842Z,15.05
2022-10-19T12:12:43.817Z,15.05
2022-10-19T12:13:43.799Z,15.02
2022-10-19T12:14:43.772Z,15.04
2022-10-19T12:15:43.757Z,15.05
2022-10-19T12:16:43.728Z,15.12
2022-10-19T12:17:43.706Z,15.02
2022-10-19T12:18:43.682Z,15.05
2022-10-19T12:19:43.664Z,15.04
2022-10-19T12:20:43.637Z,15.15
2022-10-19T12:21:43.621Z,15.04
2022-10-19T12:22:43.597Z,15.14
2022-10-19T12:23:43.575Z,15.07
2022-10-19T12:24:43.550Z,15.07
2022-10-19T12:25:43.531Z,15.11
2022-10-19T12:26:43.534Z,15.07
2022-10-19T12:27:43.483Z,15.14
2022-10-19T12:28:43.463Z,15.14
2022-10-19T12:29:43.441Z,15.19
2022-10-19T12:30:43.419Z,15.17
2022-10-19T12:31:43.397Z,15.22
2022-10-19T12:32:43.371Z,15.32
2022-10-19T12:33:43.353Z,15.22
2022-10-19T12:34:43.340Z,15.22
2022-10-19T12:35:43.308Z,15.25
2022-10-19T12:36:43.287Z,15.22
2022-10-19T12:37:43.263Z,15.15
2022-10-19T12:38:46.072Z,15.17
2022-10-19T12:39:43.218Z,15.23
2022-10-19T12:40:43.201Z,15.18
2022-10-19T12:41:43.175Z,15.17
2022-10-19T12:42:43.170Z,15.17
2022-10-19T12:43:43.133Z,15.19
2022-10-19T12:44:43.110Z,15.17
2022-10-19T12:45:43.087Z,15.19
2022-10-19T12:46:43.066Z,15.07
2022-10-19T12:47:43.046Z,15.04
2022-10-19T12:48:43.019Z,15.02
2022-10-19T12:49:42.998Z,15.07
2022-10-19T12:50:42.979Z,15.00
2022-10-19T12:51:42.954Z,15.08
2022-10-19T12:52:42.929Z,15.02
2022-10-19T12:53:42.917Z,15.17
2022-10-19T12:54:42.889Z,15.07
2022-10-19T12:55:44.953Z,15.15
2022-10-19T12:56:42.843Z,15.17
2022-10-19T12:57:42.820Z,15.17
2022-10-19T12:58:47.658Z,15.18
2022-10-19T12:59:42.774Z,15.19
2022-10-19T13:00:42.770Z,15.17
2022-10-19T13:01:42.735Z,15.29
2022-10-19T13:02:42.757Z,15.15
2022-10-19T13:03:42.696Z,15.17
2022-10-19T13:04:42.664Z,15.23
2022-10-19T13:05:42.663Z,15.17
2022-10-19T13:06:42.623Z,15.19
2022-10-19T13:07:42.700Z,15.22
2022-10-19T13:08:42.636Z,15.19